sensor_id;sensor_type;location;lat;lon;timestamp;pressure;altitude;pressure_sealevel;temperature
66180;BMP280;52986;44.028;20.466;2023-03-01T00:01:33;98850.41;;;2.82
66180;BMP280;52986;44.028;20.466;2023-03-01T00:03:59;98838.28;;;2.81
66180;BMP280;52986;44.028;20.466;2023-03-01T00:06:25;98830.72;;;2.80
66180;BMP280;52986;44.028;20.466;2023-03-01T00:08:51;98838.22;;;2.78
66180;BMP280;52986;44.028;20.466;2023-03-01T00:11:21;98835.28;;;2.83
66180;BMP280;52986;44.028;20.466;2023-03-01T00:13:48;98831.47;;;2.80
66180;BMP280;52986;44.028;20.466;2023-03-01T00:16:18;98826.94;;;2.81
66180;BMP280;52986;44.028;20.466;2023-03-01T00:18:44;98830.00;;;2.83
66180;BMP280;52986;44.028;20.466;2023-03-01T00:21:09;98826.59;;;2.82
66180;BMP280;52986;44.028;20.466;2023-03-01T00:23:36;98829.53;;;2.77
66180;BMP280;52986;44.028;20.466;2023-03-01T00:26:05;98823.13;;;2.78
66180;BMP280;52986;44.028;20.466;2023-03-01T00:28:31;98825.75;;;2.78
66180;BMP280;52986;44.028;20.466;2023-03-01T00:31:05;98825.44;;;2.80
66180;BMP280;52986;44.028;20.466;2023-03-01T00:33:30;98820.47;;;2.78
66180;BMP280;52986;44.028;20.466;2023-03-01T00:35:58;98823.88;;;2.79
66180;BMP280;52986;44.028;20.466;2023-03-01T00:38:23;98826.53;;;2.79
66180;BMP280;52986;44.028;20.466;2023-03-01T00:40:49;98819.78;;;2.81
66180;BMP280;52986;44.028;20.466;2023-03-01T00:43:14;98812.50;;;2.74
66180;BMP280;52986;44.028;20.466;2023-03-01T00:45:39;98824.59;;;2.76
66180;BMP280;52986;44.028;20.466;2023-03-01T00:48:05;98821.59;;;2.77
66180;BMP280;52986;44.028;20.466;2023-03-01T00:50:30;98824.25;;;2.77
66180;BMP280;52986;44.028;20.466;2023-03-01T00:52:56;98827.31;;;2.79
66180;BMP280;52986;44.028;20.466;2023-03-01T00:55:22;98821.59;;;2.77
66180;BMP280;52986;44.028;20.466;2023-03-01T00:57:47;98823.47;;;2.73
66180;BMP280;52986;44.028;20.466;2023-03-01T01:00:13;98823.34;;;2.66
66180;BMP280;52986;44.028;20.466;2023-03-01T01:02:38;98823.03;;;2.71
66180;BMP280;52986;44.028;20.466;2023-03-01T01:05:04;98821.50;;;2.70
66180;BMP280;52986;44.028;20.466;2023-03-01T01:07:30;98821.97;;;2.76
66180;BMP280;52986;44.028;20.466;2023-03-01T01:09:55;98824.31;;;2.81
66180;BMP280;52986;44.028;20.466;2023-03-01T01:12:21;98817.06;;;2.78
66180;BMP280;52986;44.028;20.466;2023-03-01T01:21:42;98797.09;;;2.80
66180;BMP280;52986;44.028;20.466;2023-03-01T01:24:08;98789.09;;;2.77
66180;BMP280;52986;44.028;20.466;2023-03-01T01:26:34;98782.69;;;2.78
66180;BMP280;52986;44.028;20.466;2023-03-01T01:29:01;98781.16;;;2.77
66180;BMP280;52986;44.028;20.466;2023-03-01T01:31:27;98776.59;;;2.73
66180;BMP280;52986;44.028;20.466;2023-03-01T01:33:53;98777.75;;;2.76
66180;BMP280;52986;44.028;20.466;2023-03-01T01:36:19;98777.38;;;2.74
66180;BMP280;52986;44.028;20.466;2023-03-01T01:38:46;98775.13;;;2.76
66180;BMP280;52986;44.028;20.466;2023-03-01T01:41:13;98774.66;;;2.70
66180;BMP280;52986;44.028;20.466;2023-03-01T01:43:42;98761.50;;;2.74
66180;BMP280;52986;44.028;20.466;2023-03-01T01:46:28;98762.66;;;2.77
66180;BMP280;52986;44.028;20.466;2023-03-01T01:49:00;98756.53;;;2.72
66180;BMP280;52986;44.028;20.466;2023-03-01T01:51:36;98752.38;;;2.71
66180;BMP280;52986;44.028;20.466;2023-03-01T01:54:08;98744.06;;;2.69
66180;BMP280;52986;44.028;20.466;2023-03-01T01:56:36;98748.97;;;2.71
66180;BMP280;52986;44.028;20.466;2023-03-01T01:59:02;98735.38;;;2.72
66180;BMP280;52986;44.028;20.466;2023-03-01T02:01:28;98732.75;;;2.72
66180;BMP280;52986;44.028;20.466;2023-03-01T02:03:53;98736.19;;;2.77
66180;BMP280;52986;44.028;20.466;2023-03-01T02:06:27;98733.94;;;2.79
66180;BMP280;52986;44.028;20.466;2023-03-01T02:08:55;98741.47;;;2.77
66180;BMP280;52986;44.028;20.466;2023-03-01T02:11:22;98738.81;;;2.73
66180;BMP280;52986;44.028;20.466;2023-03-01T02:13:49;98736.94;;;2.73
66180;BMP280;52986;44.028;20.466;2023-03-01T02:16:16;98739.81;;;2.65
66180;BMP280;52986;44.028;20.466;2023-03-01T02:18:43;98742.09;;;2.66
66180;BMP280;52986;44.028;20.466;2023-03-01T02:23:46;98726.34;;;2.73
66180;BMP280;52986;44.028;20.466;2023-03-01T02:26:22;98724.81;;;2.72
66180;BMP280;52986;44.028;20.466;2023-03-01T02:28:50;98724.91;;;2.80
66180;BMP280;52986;44.028;20.466;2023-03-01T02:31:18;98723.28;;;2.71
66180;BMP280;52986;44.028;20.466;2023-03-01T02:34:03;98721.00;;;2.70
66180;BMP280;52986;44.028;20.466;2023-03-01T02:36:37;98713.84;;;2.70
66180;BMP280;52986;44.028;20.466;2023-03-01T02:39:05;98708.97;;;2.76
66180;BMP280;52986;44.028;20.466;2023-03-01T02:41:35;98719.25;;;2.81
66180;BMP280;52986;44.028;20.466;2023-03-01T02:44:01;98715.84;;;2.81
66180;BMP280;52986;44.028;20.466;2023-03-01T02:46:27;98710.13;;;2.79
66180;BMP280;52986;44.028;20.466;2023-03-01T02:48:55;98705.59;;;2.76
66180;BMP280;52986;44.028;20.466;2023-03-01T02:54:22;98707.41;;;2.71
66180;BMP280;52986;44.028;20.466;2023-03-01T02:56:49;98708.97;;;2.76
66180;BMP280;52986;44.028;20.466;2023-03-01T02:59:18;98704.06;;;2.74
66180;BMP280;52986;44.028;20.466;2023-03-01T03:01:44;98710.88;;;2.76
66180;BMP280;52986;44.028;20.466;2023-03-01T03:04:14;98709.72;;;2.73
66180;BMP280;52986;44.028;20.466;2023-03-01T03:06:48;98712.69;;;2.71
66180;BMP280;52986;44.028;20.466;2023-03-01T03:09:14;98707.41;;;2.71
66180;BMP280;52986;44.028;20.466;2023-03-01T03:11:40;98708.94;;;2.72
66180;BMP280;52986;44.028;20.466;2023-03-01T03:14:07;98713.84;;;2.70
66180;BMP280;52986;44.028;20.466;2023-03-01T03:16:40;98698.00;;;2.74
66180;BMP280;52986;44.028;20.466;2023-03-01T03:19:05;98704.78;;;2.71
66180;BMP280;52986;44.028;20.466;2023-03-01T03:21:32;98704.06;;;2.74
66180;BMP280;52986;44.028;20.466;2023-03-01T03:23:58;98694.59;;;2.73
66180;BMP280;52986;44.028;20.466;2023-03-01T03:26:23;98689.72;;;2.76
66180;BMP280;52986;44.028;20.466;2023-03-01T03:28:49;98696.13;;;2.74
66180;BMP280;52986;44.028;20.466;2023-03-01T03:31:14;98695.38;;;2.78
66180;BMP280;52986;44.028;20.466;2023-03-01T03:33:39;98697.28;;;2.77
66180;BMP280;52986;44.028;20.466;2023-03-01T03:36:05;98696.16;;;2.78
66180;BMP280;52986;44.028;20.466;2023-03-01T03:38:30;98693.88;;;2.77
66180;BMP280;52986;44.028;20.466;2023-03-01T03:41:05;98690.47;;;2.76
66180;BMP280;52986;44.028;20.466;2023-03-01T03:43:33;98691.63;;;2.79
66180;BMP280;52986;44.028;20.466;2023-03-01T03:45:58;98688.94;;;2.75
66180;BMP280;52986;44.028;20.466;2023-03-01T03:48:25;98696.13;;;2.74
66180;BMP280;52986;44.028;20.466;2023-03-01T03:50:52;98693.13;;;2.76
66180;BMP280;52986;44.028;20.466;2023-03-01T03:53:20;98691.59;;;2.75
66180;BMP280;52986;44.028;20.466;2023-03-01T03:55:45;98698.34;;;2.72
66180;BMP280;52986;44.028;20.466;2023-03-01T03:58:15;98698.31;;;2.69
66180;BMP280;52986;44.028;20.466;2023-03-01T04:00:42;98700.66;;;2.74
66180;BMP280;52986;44.028;20.466;2023-03-01T04:03:08;98704.06;;;2.74
66180;BMP280;52986;44.028;20.466;2023-03-01T04:05:34;98704.09;;;2.78
66180;BMP280;52986;44.028;20.466;2023-03-01T04:08:00;98704.44;;;2.73
66180;BMP280;52986;44.028;20.466;2023-03-01T04:10:30;98701.78;;;2.73
66180;BMP280;52986;44.028;20.466;2023-03-01T04:12:56;98702.19;;;2.75
66180;BMP280;52986;44.028;20.466;2023-03-01T04:15:23;98705.59;;;2.76
66180;BMP280;52986;44.028;20.466;2023-03-01T04:17:51;98705.97;;;2.78
66180;BMP280;52986;44.028;20.466;2023-03-01T04:20:22;98713.13;;;2.73
66180;BMP280;52986;44.028;20.466;2023-03-01T04:22:52;98703.63;;;2.69
66180;BMP280;52986;44.028;20.466;2023-03-01T04:25:21;98706.28;;;2.72
66180;BMP280;52986;44.028;20.466;2023-03-01T04:27:46;98708.53;;;2.70
66180;BMP280;52986;44.028;20.466;2023-03-01T04:30:11;98711.91;;;2.67
66180;BMP280;52986;44.028;20.466;2023-03-01T04:32:37;98702.06;;;2.64
66180;BMP280;52986;44.028;20.466;2023-03-01T04:35:02;98707.03;;;2.69
66180;BMP280;52986;44.028;20.466;2023-03-01T04:37:28;98707.72;;;2.66
66180;BMP280;52986;44.028;20.466;2023-03-01T04:39:54;98703.97;;;2.67
66180;BMP280;52986;44.028;20.466;2023-03-01T04:42:20;98704.00;;;2.71
66180;BMP280;52986;44.028;20.466;2023-03-01T04:44:45;98699.53;;;2.75
66180;BMP280;52986;44.028;20.466;2023-03-01T04:47:11;98702.19;;;2.75
66180;BMP280;52986;44.028;20.466;2023-03-01T04:49:37;98705.94;;;2.74
66180;BMP280;52986;44.028;20.466;2023-03-01T04:52:03;98700.66;;;2.74
66180;BMP280;52986;44.028;20.466;2023-03-01T04:54:30;98696.13;;;2.74
66180;BMP280;52986;44.028;20.466;2023-03-01T04:56:55;98701.41;;;2.74
66180;BMP280;52986;44.028;20.466;2023-03-01T04:59:21;98700.69;;;2.78
66180;BMP280;52986;44.028;20.466;2023-03-01T05:01:48;98703.38;;;2.81
66180;BMP280;52986;44.028;20.466;2023-03-01T05:04:14;98696.97;;;2.82
66180;BMP280;52986;44.028;20.466;2023-03-01T05:06:39;98701.13;;;2.83
66180;BMP280;52986;44.028;20.466;2023-03-01T05:09:05;98704.53;;;2.84
66180;BMP280;52986;44.028;20.466;2023-03-01T05:11:30;98693.25;;;2.87
66180;BMP280;52986;44.028;20.466;2023-03-01T05:14:01;98693.94;;;2.84
66180;BMP280;52986;44.028;20.466;2023-03-01T05:16:26;98685.63;;;2.82
66180;BMP280;52986;44.028;20.466;2023-03-01T05:18:52;98689.75;;;2.79
66180;BMP280;52986;44.028;20.466;2023-03-01T05:21:17;98689.06;;;2.86
66180;BMP280;52986;44.028;20.466;2023-03-01T05:23:43;98693.19;;;2.83
66180;BMP280;52986;44.028;20.466;2023-03-01T05:26:09;98704.13;;;2.82
66180;BMP280;52986;44.028;20.466;2023-03-01T05:28:35;98691.66;;;2.82
66180;BMP280;52986;44.028;20.466;2023-03-01T05:31:01;98695.06;;;2.79
66180;BMP280;52986;44.028;20.466;2023-03-01T05:33:26;98693.94;;;2.84
66180;BMP280;52986;44.028;20.466;2023-03-01T05:35:52;98695.47;;;2.85
66180;BMP280;52986;44.028;20.466;2023-03-01T05:38:19;98699.28;;;2.87
66180;BMP280;52986;44.028;20.466;2023-03-01T05:40:47;98700.41;;;2.86
66180;BMP280;52986;44.028;20.466;2023-03-01T05:43:14;98694.38;;;2.89
66180;BMP280;52986;44.028;20.466;2023-03-01T05:45:40;98690.97;;;2.89
66180;BMP280;52986;44.028;20.466;2023-03-01T05:48:07;98683.41;;;2.87
66180;BMP280;52986;44.028;20.466;2023-03-01T05:50:35;98692.91;;;2.92
66180;BMP280;52986;44.028;20.466;2023-03-01T05:53:04;98699.72;;;2.93
66180;BMP280;52986;44.028;20.466;2023-03-01T05:55:31;98697.03;;;2.89
66180;BMP280;52986;44.028;20.466;2023-03-01T05:58:05;98692.91;;;2.92
66180;BMP280;52986;44.028;20.466;2023-03-01T06:00:31;98695.91;;;2.90
66180;BMP280;52986;44.028;20.466;2023-03-01T06:02:58;98694.44;;;2.93
66180;BMP280;52986;44.028;20.466;2023-03-01T06:05:24;98688.03;;;2.94
66180;BMP280;52986;44.028;20.466;2023-03-01T06:07:50;98697.09;;;2.93
66180;BMP280;52986;44.028;20.466;2023-03-01T06:10:17;98692.97;;;2.99
66180;BMP280;52986;44.028;20.466;2023-03-01T06:12:43;98702.41;;;3.00
66180;BMP280;52986;44.028;20.466;2023-03-01T06:15:10;98701.28;;;3.01
66180;BMP280;52986;44.028;20.466;2023-03-01T06:17:38;98707.31;;;2.98
66180;BMP280;52986;44.028;20.466;2023-03-01T06:20:05;98699.78;;;3.00
66180;BMP280;52986;44.028;20.466;2023-03-01T06:22:31;98701.28;;;2.97
66180;BMP280;52986;44.028;20.466;2023-03-01T06:24:57;98704.75;;;3.05
66180;BMP280;52986;44.028;20.466;2023-03-01T06:27:22;98702.09;;;3.05
66180;BMP280;52986;44.028;20.466;2023-03-01T06:29:48;98702.09;;;3.05
66180;BMP280;52986;44.028;20.466;2023-03-01T06:32:14;98702.88;;;3.09
66180;BMP280;52986;44.028;20.466;2023-03-01T06:34:39;98697.63;;;3.13
66180;BMP280;52986;44.028;20.466;2023-03-01T06:37:06;98698.06;;;3.18
66180;BMP280;52986;44.028;20.466;2023-03-01T06:39:32;98693.59;;;3.22
66180;BMP280;52986;44.028;20.466;2023-03-01T06:41:58;98693.94;;;3.24
66180;BMP280;52986;44.028;20.466;2023-03-01T06:44:23;98686.00;;;3.24
66180;BMP280;52986;44.028;20.466;2023-03-01T06:46:49;98689.84;;;3.30
66180;BMP280;52986;44.028;20.466;2023-03-01T06:49:14;98685.69;;;3.33
66180;BMP280;52986;44.028;20.466;2023-03-01T06:51:41;98687.63;;;3.36
66180;BMP280;52986;44.028;20.466;2023-03-01T06:54:07;98698.25;;;3.40
66180;BMP280;52986;44.028;20.466;2023-03-01T06:56:32;98684.66;;;3.41
66180;BMP280;52986;44.028;20.466;2023-03-01T06:58:58;98698.25;;;3.40
66180;BMP280;52986;44.028;20.466;2023-03-01T07:01:24;98694.88;;;3.50
66180;BMP280;52986;44.028;20.466;2023-03-01T07:03:49;98692.25;;;3.50
66180;BMP280;52986;44.028;20.466;2023-03-01T07:06:15;98696.06;;;3.49
66180;BMP280;52986;44.028;20.466;2023-03-01T07:08:41;98693.41;;;3.52
66180;BMP280;52986;44.028;20.466;2023-03-01T07:11:07;98696.78;;;3.46
66180;BMP280;52986;44.028;20.466;2023-03-01T07:13:33;98700.59;;;3.48
66180;BMP280;52986;44.028;20.466;2023-03-01T07:15:58;98697.56;;;3.53
66180;BMP280;52986;44.028;20.466;2023-03-01T07:18:23;98699.91;;;3.58
66180;BMP280;52986;44.028;20.466;2023-03-01T07:20:49;98695.75;;;3.61
66180;BMP280;52986;44.028;20.466;2023-03-01T07:23:15;98695.78;;;3.68
66180;BMP280;52986;44.028;20.466;2023-03-01T07:25:40;98689.03;;;3.78
66180;BMP280;52986;44.028;20.466;2023-03-01T07:28:06;98681.94;;;3.89
66180;BMP280;52986;44.028;20.466;2023-03-01T07:30:31;98691.81;;;3.96
66180;BMP280;52986;44.028;20.466;2023-03-01T07:32:57;98685.75;;;3.95
66180;BMP280;52986;44.028;20.466;2023-03-01T07:35:25;98676.31;;;4.01
66180;BMP280;52986;44.028;20.466;2023-03-01T07:37:50;98678.16;;;3.94
66180;BMP280;52986;44.028;20.466;2023-03-01T07:40:16;98692.22;;;4.05
66180;BMP280;52986;44.028;20.466;2023-03-01T07:42:41;98678.22;;;4.08
66180;BMP280;52986;44.028;20.466;2023-03-01T07:45:07;98683.91;;;4.10
66180;BMP280;52986;44.028;20.466;2023-03-01T07:47:33;98671.03;;;4.12
66180;BMP280;52986;44.028;20.466;2023-03-01T07:49:58;98666.19;;;4.25
66180;BMP280;52986;44.028;20.466;2023-03-01T07:52:24;98671.84;;;4.23
66180;BMP280;52986;44.028;20.466;2023-03-01T07:54:49;98676.81;;;4.35
66180;BMP280;52986;44.028;20.466;2023-03-01T07:57:15;98664.69;;;4.34
66180;BMP280;52986;44.028;20.466;2023-03-01T07:59:40;98665.06;;;4.33
66180;BMP280;52986;44.028;20.466;2023-03-01T08:02:05;98662.44;;;4.47
66180;BMP280;52986;44.028;20.466;2023-03-01T08:04:32;98659.78;;;4.40
66180;BMP280;52986;44.028;20.466;2023-03-01T08:06:58;98665.50;;;4.49
66180;BMP280;52986;44.028;20.466;2023-03-01T08:09:23;98663.59;;;4.46
66180;BMP280;52986;44.028;20.466;2023-03-01T08:11:49;98661.31;;;4.48
66180;BMP280;52986;44.028;20.466;2023-03-01T08:14:14;98656.41;;;4.64
66180;BMP280;52986;44.028;20.466;2023-03-01T08:16:39;98650.38;;;4.78
66180;BMP280;52986;44.028;20.466;2023-03-01T08:19:07;98654.19;;;5.09
66180;BMP280;52986;44.028;20.466;2023-03-01T08:21:33;98657.22;;;5.40
66180;BMP280;52986;44.028;20.466;2023-03-01T08:24:05;98652.97;;;5.60
66180;BMP280;52986;44.028;20.466;2023-03-01T08:26:32;98651.09;;;5.64
66180;BMP280;52986;44.028;20.466;2023-03-01T08:28:59;98651.38;;;5.95
66180;BMP280;52986;44.028;20.466;2023-03-01T08:31:29;98650.66;;;5.83
66180;BMP280;52986;44.028;20.466;2023-03-01T08:33:58;98661.69;;;5.68
66180;BMP280;52986;44.028;20.466;2023-03-01T08:36:26;98653.38;;;5.55
66180;BMP280;52986;44.028;20.466;2023-03-01T08:38:52;98652.22;;;5.45
66180;BMP280;52986;44.028;20.466;2023-03-01T08:41:18;98648.88;;;5.27
66180;BMP280;52986;44.028;20.466;2023-03-01T08:43:44;98657.22;;;4.90
66180;BMP280;52986;44.028;20.466;2023-03-01T08:46:10;98654.53;;;4.61
66180;BMP280;52986;44.028;20.466;2023-03-01T08:48:35;98653.41;;;4.77
66180;BMP280;52986;44.028;20.466;2023-03-01T08:51:12;98651.88;;;4.97
66180;BMP280;52986;44.028;20.466;2023-03-01T08:53:38;98647.38;;;4.97
66180;BMP280;52986;44.028;20.466;2023-03-01T08:56:04;98644.72;;;5.22
66180;BMP280;52986;44.028;20.466;2023-03-01T08:58:30;98647.69;;;5.49
66180;BMP280;52986;44.028;20.466;2023-03-01T09:00:55;98636.63;;;5.69
66180;BMP280;52986;44.028;20.466;2023-03-01T09:03:24;98628.28;;;5.67
66180;BMP280;52986;44.028;20.466;2023-03-01T09:05:50;98623.72;;;5.64
66180;BMP280;52986;44.028;20.466;2023-03-01T09:08:19;98622.22;;;5.63
66180;BMP280;52986;44.028;20.466;2023-03-01T09:10:45;98621.84;;;5.61
66180;BMP280;52986;44.028;20.466;2023-03-01T09:13:11;98617.28;;;5.61
66180;BMP280;52986;44.028;20.466;2023-03-01T09:15:37;98620.34;;;5.45
66180;BMP280;52986;44.028;20.466;2023-03-01T09:18:03;98605.50;;;5.62
66180;BMP280;52986;44.028;20.466;2023-03-01T09:20:30;98605.53;;;5.66
66180;BMP280;52986;44.028;20.466;2023-03-01T09:22:55;98609.31;;;5.72
66180;BMP280;52986;44.028;20.466;2023-03-01T09:25:21;98601.72;;;5.70
66180;BMP280;52986;44.028;20.466;2023-03-01T09:27:46;98600.97;;;5.63
66180;BMP280;52986;44.028;20.466;2023-03-01T09:30:12;98606.22;;;5.80
66180;BMP280;52986;44.028;20.466;2023-03-01T09:32:38;98601.97;;;5.97
66180;BMP280;52986;44.028;20.466;2023-03-01T09:35:08;98604.94;;;6.13
66180;BMP280;52986;44.028;20.466;2023-03-01T09:37:35;98607.88;;;6.30
66180;BMP280;52986;44.028;20.466;2023-03-01T09:40:06;98602.97;;;6.25
66180;BMP280;52986;44.028;20.466;2023-03-01T09:42:34;98606.75;;;6.27
66180;BMP280;52986;44.028;20.466;2023-03-01T09:45:04;98602.06;;;6.49
66180;BMP280;52986;44.028;20.466;2023-03-01T09:47:33;98599.34;;;6.56
66180;BMP280;52986;44.028;20.466;2023-03-01T09:50:12;98592.88;;;6.54
66180;BMP280;52986;44.028;20.466;2023-03-01T09:52:39;98597.38;;;6.60
66180;BMP280;52986;44.028;20.466;2023-03-01T09:55:12;98589.00;;;6.65
66180;BMP280;52986;44.028;20.466;2023-03-01T09:57:47;98595.63;;;6.91
66180;BMP280;52986;44.028;20.466;2023-03-01T10:02:48;98595.28;;;7.61
66180;BMP280;52986;44.028;20.466;2023-03-01T10:05:59;98585.94;;;8.07
66180;BMP280;52986;44.028;20.466;2023-03-01T10:08:33;98589.66;;;8.36
66180;BMP280;52986;44.028;20.466;2023-03-01T10:11:02;98585.47;;;8.62
66180;BMP280;52986;44.028;20.466;2023-03-01T10:17:08;98574.31;;;9.10
66180;BMP280;52986;44.028;20.466;2023-03-01T10:19:21;98595.81;;;10.15
66180;BMP280;52986;44.028;20.466;2023-03-01T10:21:49;98577.22;;;10.41
66180;BMP280;52986;44.028;20.466;2023-03-01T10:24:17;98576.91;;;10.06
66180;BMP280;52986;44.028;20.466;2023-03-01T10:26:51;98564.34;;;9.87
66180;BMP280;52986;44.028;20.466;2023-03-01T10:29:19;98563.41;;;9.77
66180;BMP280;52986;44.028;20.466;2023-03-01T10:31:50;98561.13;;;9.59
66180;BMP280;52986;44.028;20.466;2023-03-01T10:34:18;98561.00;;;9.47
66180;BMP280;52986;44.028;20.466;2023-03-01T10:36:47;98563.03;;;9.39
66180;BMP280;52986;44.028;20.466;2023-03-01T10:39:17;98566.69;;;9.29
66180;BMP280;52986;44.028;20.466;2023-03-01T10:44:44;98551.47;;;9.06
66180;BMP280;52986;44.028;20.466;2023-03-01T10:47:19;98551.34;;;8.93
66180;BMP280;52986;44.028;20.466;2023-03-01T10:50:22;98567.41;;;8.70
66180;BMP280;52986;44.028;20.466;2023-03-01T10:53:02;98564.97;;;8.79
66180;BMP280;52986;44.028;20.466;2023-03-01T10:55:37;98559.34;;;8.73
66180;BMP280;52986;44.028;20.466;2023-03-01T11:03:25;98546.03;;;8.90
66180;BMP280;52986;44.028;20.466;2023-03-01T11:05:56;98549.13;;;8.88
66180;BMP280;52986;44.028;20.466;2023-03-01T11:08:36;98537.13;;;8.96
66180;BMP280;52986;44.028;20.466;2023-03-01T11:11:33;98539.19;;;8.69
66180;BMP280;52986;44.028;20.466;2023-03-01T11:16:31;98522.38;;;8.48
66180;BMP280;52986;44.028;20.466;2023-03-01T11:18:58;98519.22;;;8.54
66180;BMP280;52986;44.028;20.466;2023-03-01T11:21:25;98513.41;;;8.59
66180;BMP280;52986;44.028;20.466;2023-03-01T11:23:52;98513.97;;;8.70
66180;BMP280;52986;44.028;20.466;2023-03-01T11:26:18;98508.78;;;8.63
66180;BMP280;52986;44.028;20.466;2023-03-01T11:28:50;98501.97;;;8.58
66180;BMP280;52986;44.028;20.466;2023-03-01T11:31:18;98507.28;;;8.62
66180;BMP280;52986;44.028;20.466;2023-03-01T11:34:05;98499.25;;;8.62
66180;BMP280;52986;44.028;20.466;2023-03-01T11:36:40;98502.06;;;8.55
66180;BMP280;52986;44.028;20.466;2023-03-01T11:41:41;98493.75;;;8.49
66180;BMP280;52986;44.028;20.466;2023-03-01T11:44:16;98495.31;;;8.46
66180;BMP280;52986;44.028;20.466;2023-03-01T11:57:49;98483.47;;;8.24
66180;BMP280;52986;44.028;20.466;2023-03-01T12:03:27;98472.13;;;8.20
66180;BMP280;52986;44.028;20.466;2023-03-01T12:08:45;98472.53;;;8.18
66180;BMP280;52986;44.028;20.466;2023-03-01T12:19:39;98435.22;;;8.38
66180;BMP280;52986;44.028;20.466;2023-03-01T12:24:35;98438.66;;;8.59
66180;BMP280;52986;44.028;20.466;2023-03-01T12:37:54;98413.97;;;9.10
66180;BMP280;52986;44.028;20.466;2023-03-01T12:43:10;98405.66;;;9.41
66180;BMP280;52986;44.028;20.466;2023-03-01T12:51:04;98395.44;;;9.36
66180;BMP280;52986;44.028;20.466;2023-03-01T12:53:36;98398.88;;;9.53
66180;BMP280;52986;44.028;20.466;2023-03-01T12:56:14;98400.53;;;9.63
66180;BMP280;52986;44.028;20.466;2023-03-01T13:04:35;98395.25;;;9.27
66180;BMP280;52986;44.028;20.466;2023-03-01T13:17:56;98386.53;;;9.06
66180;BMP280;52986;44.028;20.466;2023-03-01T13:23:34;98380.06;;;9.24
66180;BMP280;52986;44.028;20.466;2023-03-01T13:33:53;98382.81;;;9.36
66180;BMP280;52986;44.028;20.466;2023-03-01T13:38:58;98369.34;;;9.24
66180;BMP280;52986;44.028;20.466;2023-03-01T13:44:35;98352.09;;;9.28
66180;BMP280;52986;44.028;20.466;2023-03-01T13:52:44;98357.69;;;9.34
66180;BMP280;52986;44.028;20.466;2023-03-01T13:55:47;98359.13;;;9.22
66180;BMP280;52986;44.028;20.466;2023-03-01T13:58:22;98362.03;;;9.11
66180;BMP280;52986;44.028;20.466;2023-03-01T14:00:55;98353.81;;;9.19
66180;BMP280;52986;44.028;20.466;2023-03-01T14:03:21;98352.50;;;9.10
66180;BMP280;52986;44.028;20.466;2023-03-01T14:06:06;98353.50;;;9.17
66180;BMP280;52986;44.028;20.466;2023-03-01T14:08:34;98351.66;;;9.14
66180;BMP280;52986;44.028;20.466;2023-03-01T14:13:52;98360.28;;;9.21
66180;BMP280;52986;44.028;20.466;2023-03-01T14:21:42;98346.75;;;9.28
66180;BMP280;52986;44.028;20.466;2023-03-01T14:24:17;98342.72;;;9.20
66180;BMP280;52986;44.028;20.466;2023-03-01T14:26:43;98340.88;;;9.17
66180;BMP280;52986;44.028;20.466;2023-03-01T14:29:25;98337.28;;;9.24
66180;BMP280;52986;44.028;20.466;2023-03-01T14:31:51;98320.50;;;9.23
66180;BMP280;52986;44.028;20.466;2023-03-01T14:34:22;98329.25;;;9.24
66180;BMP280;52986;44.028;20.466;2023-03-01T14:36:48;98322.09;;;9.21
66180;BMP280;52986;44.028;20.466;2023-03-01T14:39:19;98332.69;;;9.24
66180;BMP280;52986;44.028;20.466;2023-03-01T14:41:45;98332.69;;;9.24
66180;BMP280;52986;44.028;20.466;2023-03-01T14:44:19;98331.38;;;9.16
66180;BMP280;52986;44.028;20.466;2023-03-01T14:46:52;98325.66;;;9.14
66180;BMP280;52986;44.028;20.466;2023-03-01T14:49:26;98315.41;;;9.13
66180;BMP280;52986;44.028;20.466;2023-03-01T14:52:01;98329.09;;;9.15
66180;BMP280;52986;44.028;20.466;2023-03-01T14:56:59;98335.59;;;8.97
66180;BMP280;52986;44.028;20.466;2023-03-01T14:59:25;98325.31;;;8.79
66180;BMP280;52986;44.028;20.466;2023-03-01T15:01:53;98316.53;;;8.79
66180;BMP280;52986;44.028;20.466;2023-03-01T15:04:21;98312.34;;;8.78
66180;BMP280;52986;44.028;20.466;2023-03-01T15:06:51;98314.00;;;8.72
66180;BMP280;52986;44.028;20.466;2023-03-01T15:09:17;98314.00;;;8.72
66180;BMP280;52986;44.028;20.466;2023-03-01T15:11:43;98326.34;;;8.66
66180;BMP280;52986;44.028;20.466;2023-03-01T15:14:47;98313.50;;;8.61
66180;BMP280;52986;44.028;20.466;2023-03-01T15:19:51;98313.72;;;8.50
66180;BMP280;52986;44.028;20.466;2023-03-01T15:22:16;98319.06;;;8.50
66180;BMP280;52986;44.028;20.466;2023-03-01T15:24:47;98315.38;;;8.44
66180;BMP280;52986;44.028;20.466;2023-03-01T15:27:16;98325.31;;;8.43
66180;BMP280;52986;44.028;20.466;2023-03-01T15:29:48;98318.50;;;8.39
66180;BMP280;52986;44.028;20.466;2023-03-01T15:32:27;98328.22;;;8.29
66180;BMP280;52986;44.028;20.466;2023-03-01T15:34:53;98325.56;;;8.29
66180;BMP280;52986;44.028;20.466;2023-03-01T15:40:27;98325.78;;;8.18
66180;BMP280;52986;44.028;20.466;2023-03-01T15:43:04;98322.28;;;8.21
66180;BMP280;52986;44.028;20.466;2023-03-01T15:45:30;98317.81;;;8.15
66180;BMP280;52986;44.028;20.466;2023-03-01T15:48:24;98322.09;;;8.12
66180;BMP280;52986;44.028;20.466;2023-03-01T15:50:58;98327.47;;;8.09
66180;BMP280;52986;44.028;20.466;2023-03-01T15:53:26;98314.69;;;8.20
66180;BMP280;52986;44.028;20.466;2023-03-01T15:55:52;98305.22;;;8.15
66180;BMP280;52986;44.028;20.466;2023-03-01T15:58:24;98306.31;;;8.18
66180;BMP280;52986;44.028;20.466;2023-03-01T16:00:50;98291.97;;;8.12
66180;BMP280;52986;44.028;20.466;2023-03-01T16:03:21;98297.66;;;8.14
66180;BMP280;52986;44.028;20.466;2023-03-01T16:05:48;98289.63;;;8.14
66180;BMP280;52986;44.028;20.466;2023-03-01T16:08:14;98290.84;;;8.13
66180;BMP280;52986;44.028;20.466;2023-03-01T16:10:40;98295.06;;;8.10
66180;BMP280;52986;44.028;20.466;2023-03-01T16:13:06;98286.72;;;8.08
66180;BMP280;52986;44.028;20.466;2023-03-01T16:15:33;98288.63;;;8.08
66180;BMP280;52986;44.028;20.466;2023-03-01T16:18:00;98297.03;;;8.06
66180;BMP280;52986;44.028;20.466;2023-03-01T16:20:27;98288.78;;;8.01
66180;BMP280;52986;44.028;20.466;2023-03-01T16:22:53;98285.06;;;7.95
66180;BMP280;52986;44.028;20.466;2023-03-01T16:25:20;98289.75;;;7.87
66180;BMP280;52986;44.028;20.466;2023-03-01T16:27:50;98294.34;;;7.86
66180;BMP280;52986;44.028;20.466;2023-03-01T16:30:18;98286.41;;;7.83